sensor_id;sensor_type;location;lat;lon;timestamp;P1;durP1;ratioP1;P2;durP2;ratioP2
53439;SDS011;39333;47.044;15.080;2022-09-21T00:01:08;156.15;;;149.13;;
53439;SDS011;39333;47.044;15.080;2022-09-21T00:03:37;155.80;;;149.02;;
53439;SDS011;39333;47.044;15.080;2022-09-21T00:06:05;161.63;;;154.32;;
53439;SDS011;39333;47.044;15.080;2022-09-21T00:08:33;159.50;;;152.30;;
53439;SDS011;39333;47.044;15.080;2022-09-21T00:11:00;158.45;;;151.60;;
53439;SDS011;39333;47.044;15.080;2022-09-21T00:13:28;161.75;;;154.85;;
53439;SDS011;39333;47.044;15.080;2022-09-21T00:15:55;158.88;;;151.90;;
53439;SDS011;39333;47.044;15.080;2022-09-21T00:18:22;167.75;;;160.48;;
53439;SDS011;39333;47.044;15.080;2022-09-21T00:20:49;152.30;;;145.82;;
53439;SDS011;39333;47.044;15.080;2022-09-21T00:23:19;153.07;;;146.20;;
53439;SDS011;39333;47.044;15.080;2022-09-21T00:25:46;159.93;;;152.65;;
53439;SDS011;39333;47.044;15.080;2022-09-21T00:28:13;160.95;;;153.93;;
53439;SDS011;39333;47.044;15.080;2022-09-21T00:30:39;156.55;;;149.57;;
53439;SDS011;39333;47.044;15.080;2022-09-21T00:33:06;159.75;;;152.65;;
53439;SDS011;39333;47.044;15.080;2022-09-21T00:35:33;164.40;;;156.95;;
53439;SDS011;39333;47.044;15.080;2022-09-21T00:38:00;154.68;;;147.73;;
53439;SDS011;39333;47.044;15.080;2022-09-21T00:40:28;153.07;;;146.43;;
53439;SDS011;39333;47.044;15.080;2022-09-21T00:43:12;152.43;;;145.82;;
53439;SDS011;39333;47.044;15.080;2022-09-21T00:45:40;154.27;;;147.60;;
53439;SDS011;39333;47.044;15.080;2022-09-21T00:48:09;156.07;;;149.02;;
53439;SDS011;39333;47.044;15.080;2022-09-21T00:50:36;163.75;;;156.63;;
53439;SDS011;39333;47.044;15.080;2022-09-21T00:53:11;164.32;;;156.85;;
53439;SDS011;39333;47.044;15.080;2022-09-21T00:55:39;172.32;;;164.13;;
53439;SDS011;39333;47.044;15.080;2022-09-21T00:58:15;168.60;;;160.95;;
53439;SDS011;39333;47.044;15.080;2022-09-21T01:00:48;153.82;;;147.13;;
53439;SDS011;39333;47.044;15.080;2022-09-21T01:03:15;158.02;;;151.45;;
53439;SDS011;39333;47.044;15.080;2022-09-21T01:05:41;154.35;;;147.48;;
53439;SDS011;39333;47.044;15.080;2022-09-21T01:08:08;157.65;;;150.88;;
53439;SDS011;39333;47.044;15.080;2022-09-21T01:19:26;160.65;;;153.38;;
53439;SDS011;39333;47.044;15.080;2022-09-21T01:28:03;150.32;;;143.85;;
53439;SDS011;39333;47.044;15.080;2022-09-21T01:30:39;167.02;;;159.43;;
53439;SDS011;39333;47.044;15.080;2022-09-21T01:33:25;162.80;;;155.57;;
53439;SDS011;39333;47.044;15.080;2022-09-21T01:36:02;155.63;;;148.85;;
53439;SDS011;39333;47.044;15.080;2022-09-21T01:38:39;146.95;;;140.43;;
53439;SDS011;39333;47.044;15.080;2022-09-21T01:41:18;151.52;;;144.93;;
53439;SDS011;39333;47.044;15.080;2022-09-21T01:43:50;161.30;;;153.85;;
53439;SDS011;39333;47.044;15.080;2022-09-21T01:46:21;152.95;;;146.32;;
53439;SDS011;39333;47.044;15.080;2022-09-21T01:48:54;153.52;;;146.77;;
53439;SDS011;39333;47.044;15.080;2022-09-21T01:51:25;151.82;;;145.20;;
53439;SDS011;39333;47.044;15.080;2022-09-21T01:53:55;148.93;;;142.35;;
53439;SDS011;39333;47.044;15.080;2022-09-21T01:56:29;147.25;;;140.93;;
53439;SDS011;39333;47.044;15.080;2022-09-21T02:01:35;150.05;;;143.15;;
53439;SDS011;39333;47.044;15.080;2022-09-21T02:04:11;168.75;;;160.80;;
53439;SDS011;39333;47.044;15.080;2022-09-21T02:06:40;155.15;;;148.38;;
53439;SDS011;39333;47.044;15.080;2022-09-21T02:09:10;152.95;;;145.73;;
53439;SDS011;39333;47.044;15.080;2022-09-21T02:11:37;150.02;;;143.57;;
53439;SDS011;39333;47.044;15.080;2022-09-21T02:14:09;159.13;;;151.82;;
53439;SDS011;39333;47.044;15.080;2022-09-21T02:16:54;151.90;;;145.30;;
53439;SDS011;39333;47.044;15.080;2022-09-21T02:19:30;152.18;;;145.27;;
53439;SDS011;39333;47.044;15.080;2022-09-21T02:22:04;158.32;;;151.52;;
53439;SDS011;39333;47.044;15.080;2022-09-21T02:24:42;155.40;;;148.43;;
53439;SDS011;39333;47.044;15.080;2022-09-21T02:27:17;152.43;;;145.57;;
53439;SDS011;39333;47.044;15.080;2022-09-21T02:30:00;152.60;;;146.13;;
53439;SDS011;39333;47.044;15.080;2022-09-21T02:38:07;147.20;;;140.88;;
53439;SDS011;39333;47.044;15.080;2022-09-21T02:43:50;147.52;;;141.13;;
53439;SDS011;39333;47.044;15.080;2022-09-21T02:46:24;158.32;;;150.68;;
53439;SDS011;39333;47.044;15.080;2022-09-21T02:49:06;164.63;;;157.57;;
53439;SDS011;39333;47.044;15.080;2022-09-21T02:51:39;162.63;;;155.45;;
53439;SDS011;39333;47.044;15.080;2022-09-21T02:54:13;161.15;;;154.02;;
53439;SDS011;39333;47.044;15.080;2022-09-21T02:56:47;162.10;;;154.57;;
53439;SDS011;39333;47.044;15.080;2022-09-21T02:59:16;155.70;;;148.15;;
53439;SDS011;39333;47.044;15.080;2022-09-21T03:01:43;161.65;;;154.52;;
53439;SDS011;39333;47.044;15.080;2022-09-21T03:04:10;157.90;;;150.77;;
53439;SDS011;39333;47.044;15.080;2022-09-21T03:06:36;159.00;;;152.20;;
53439;SDS011;39333;47.044;15.080;2022-09-21T03:09:03;159.65;;;152.68;;
53439;SDS011;39333;47.044;15.080;2022-09-21T03:11:30;153.07;;;146.23;;
53439;SDS011;39333;47.044;15.080;2022-09-21T03:13:57;163.80;;;156.38;;
53439;SDS011;39333;47.044;15.080;2022-09-21T03:16:24;150.82;;;144.45;;
53439;SDS011;39333;47.044;15.080;2022-09-21T03:18:51;150.75;;;144.02;;
53439;SDS011;39333;47.044;15.080;2022-09-21T03:21:18;163.93;;;156.48;;
53439;SDS011;39333;47.044;15.080;2022-09-21T03:23:44;152.07;;;144.95;;
53439;SDS011;39333;47.044;15.080;2022-09-21T03:26:11;154.70;;;147.95;;
53439;SDS011;39333;47.044;15.080;2022-09-21T03:28:37;159.82;;;152.35;;
53439;SDS011;39333;47.044;15.080;2022-09-21T03:31:04;159.48;;;152.73;;
53439;SDS011;39333;47.044;15.080;2022-09-21T03:33:32;153.65;;;146.88;;
53439;SDS011;39333;47.044;15.080;2022-09-21T03:35:59;163.65;;;155.60;;
53439;SDS011;39333;47.044;15.080;2022-09-21T03:38:25;151.70;;;144.90;;
53439;SDS011;39333;47.044;15.080;2022-09-21T03:40:52;155.02;;;148.13;;
53439;SDS011;39333;47.044;15.080;2022-09-21T03:43:23;152.95;;;145.40;;
53439;SDS011;39333;47.044;15.080;2022-09-21T03:45:50;161.40;;;154.05;;
53439;SDS011;39333;47.044;15.080;2022-09-21T03:48:17;159.63;;;152.48;;
53439;SDS011;39333;47.044;15.080;2022-09-21T03:50:44;157.80;;;150.38;;
53439;SDS011;39333;47.044;15.080;2022-09-21T03:53:11;149.55;;;143.13;;
53439;SDS011;39333;47.044;15.080;2022-09-21T03:55:38;154.43;;;147.25;;
53439;SDS011;39333;47.044;15.080;2022-09-21T03:58:05;155.35;;;148.23;;
53439;SDS011;39333;47.044;15.080;2022-09-21T04:00:32;148.43;;;142.02;;
53439;SDS011;39333;47.044;15.080;2022-09-21T04:02:59;144.68;;;138.57;;
53439;SDS011;39333;47.044;15.080;2022-09-21T04:05:27;162.55;;;154.75;;
53439;SDS011;39333;47.044;15.080;2022-09-21T04:07:54;146.48;;;139.85;;
53439;SDS011;39333;47.044;15.080;2022-09-21T04:10:22;148.70;;;142.05;;
53439;SDS011;39333;47.044;15.080;2022-09-21T04:12:55;152.43;;;145.63;;
53439;SDS011;39333;47.044;15.080;2022-09-21T04:15:23;159.25;;;151.98;;
53439;SDS011;39333;47.044;15.080;2022-09-21T04:17:50;152.20;;;145.35;;
53439;SDS011;39333;47.044;15.080;2022-09-21T04:20:19;154.38;;;147.60;;
53439;SDS011;39333;47.044;15.080;2022-09-21T04:22:46;161.60;;;152.40;;
53439;SDS011;39333;47.044;15.080;2022-09-21T04:25:13;152.23;;;145.27;;
53439;SDS011;39333;47.044;15.080;2022-09-21T04:27:42;155.05;;;148.05;;
53439;SDS011;39333;47.044;15.080;2022-09-21T04:30:09;157.23;;;149.10;;
53439;SDS011;39333;47.044;15.080;2022-09-21T04:32:37;167.27;;;158.27;;
53439;SDS011;39333;47.044;15.080;2022-09-21T04:35:04;148.35;;;141.30;;
53439;SDS011;39333;47.044;15.080;2022-09-21T04:37:31;160.98;;;153.57;;
53439;SDS011;39333;47.044;15.080;2022-09-21T04:39:58;155.55;;;148.07;;
53439;SDS011;39333;47.044;15.080;2022-09-21T04:42:26;158.00;;;150.27;;
53439;SDS011;39333;47.044;15.080;2022-09-21T04:44:52;148.32;;;141.43;;
53439;SDS011;39333;47.044;15.080;2022-09-21T04:47:19;156.43;;;149.10;;
53439;SDS011;39333;47.044;15.080;2022-09-21T04:49:49;148.90;;;142.48;;
53439;SDS011;39333;47.044;15.080;2022-09-21T04:52:16;154.68;;;147.82;;
53439;SDS011;39333;47.044;15.080;2022-09-21T04:54:44;156.02;;;147.85;;
53439;SDS011;39333;47.044;15.080;2022-09-21T04:57:12;151.48;;;144.82;;
53439;SDS011;39333;47.044;15.080;2022-09-21T04:59:39;150.00;;;142.80;;
53439;SDS011;39333;47.044;15.080;2022-09-21T05:02:06;153.15;;;146.50;;
53439;SDS011;39333;47.044;15.080;2022-09-21T05:04:32;155.32;;;148.63;;
53439;SDS011;39333;47.044;15.080;2022-09-21T05:06:59;152.85;;;146.15;;
53439;SDS011;39333;47.044;15.080;2022-09-21T05:09:25;154.73;;;147.20;;
53439;SDS011;39333;47.044;15.080;2022-09-21T05:12:11;149.10;;;142.30;;
53439;SDS011;39333;47.044;15.080;2022-09-21T05:14:37;150.52;;;144.02;;
53439;SDS011;39333;47.044;15.080;2022-09-21T05:17:04;160.25;;;152.70;;
53439;SDS011;39333;47.044;15.080;2022-09-21T05:19:31;147.48;;;140.63;;
53439;SDS011;39333;47.044;15.080;2022-09-21T05:21:57;147.90;;;141.25;;
53439;SDS011;39333;47.044;15.080;2022-09-21T05:24:24;148.35;;;141.80;;
53439;SDS011;39333;47.044;15.080;2022-09-21T05:26:50;159.27;;;152.10;;
53439;SDS011;39333;47.044;15.080;2022-09-21T05:29:17;152.57;;;145.13;;
53439;SDS011;39333;47.044;15.080;2022-09-21T05:31:50;147.02;;;140.45;;
53439;SDS011;39333;47.044;15.080;2022-09-21T05:37:25;149.85;;;143.15;;
53439;SDS011;39333;47.044;15.080;2022-09-21T05:40:05;148.90;;;142.30;;
53439;SDS011;39333;47.044;15.080;2022-09-21T05:42:32;147.82;;;141.52;;
53439;SDS011;39333;47.044;15.080;2022-09-21T05:44:59;143.60;;;137.13;;
53439;SDS011;39333;47.044;15.080;2022-09-21T05:50:38;156.85;;;149.63;;
53439;SDS011;39333;47.044;15.080;2022-09-21T05:56:07;147.48;;;140.18;;
53439;SDS011;39333;47.044;15.080;2022-09-21T06:03:58;149.65;;;142.93;;
53439;SDS011;39333;47.044;15.080;2022-09-21T06:06:27;154.77;;;147.27;;
53439;SDS011;39333;47.044;15.080;2022-09-21T06:08:54;166.20;;;155.48;;
53439;SDS011;39333;47.044;15.080;2022-09-21T06:11:20;154.93;;;147.50;;
53439;SDS011;39333;47.044;15.080;2022-09-21T06:13:47;154.43;;;147.32;;
53439;SDS011;39333;47.044;15.080;2022-09-21T06:16:13;149.65;;;142.85;;
53439;SDS011;39333;47.044;15.080;2022-09-21T06:18:41;158.05;;;150.25;;
53439;SDS011;39333;47.044;15.080;2022-09-21T06:21:07;157.27;;;150.63;;
53439;SDS011;39333;47.044;15.080;2022-09-21T06:23:34;159.50;;;152.60;;
53439;SDS011;39333;47.044;15.080;2022-09-21T06:26:02;160.95;;;153.60;;
53439;SDS011;39333;47.044;15.080;2022-09-21T06:28:28;165.73;;;158.25;;
53439;SDS011;39333;47.044;15.080;2022-09-21T06:30:56;161.60;;;154.63;;
53439;SDS011;39333;47.044;15.080;2022-09-21T06:33:23;160.50;;;153.65;;
53439;SDS011;39333;47.044;15.080;2022-09-21T06:35:57;168.57;;;161.30;;
53439;SDS011;39333;47.044;15.080;2022-09-21T06:38:26;173.43;;;165.68;;
53439;SDS011;39333;47.044;15.080;2022-09-21T06:40:54;172.38;;;165.35;;
53439;SDS011;39333;47.044;15.080;2022-09-21T06:43:26;164.77;;;157.60;;
53439;SDS011;39333;47.044;15.080;2022-09-21T06:45:53;168.05;;;161.07;;
53439;SDS011;39333;47.044;15.080;2022-09-21T06:48:23;166.63;;;159.07;;
53439;SDS011;39333;47.044;15.080;2022-09-21T06:50:55;162.55;;;155.55;;
53439;SDS011;39333;47.044;15.080;2022-09-21T06:53:26;156.48;;;150.05;;
53439;SDS011;39333;47.044;15.080;2022-09-21T06:55:59;171.70;;;164.30;;
53439;SDS011;39333;47.044;15.080;2022-09-21T06:58:28;159.90;;;153.00;;
53439;SDS011;39333;47.044;15.080;2022-09-21T07:00:55;170.80;;;163.00;;
53439;SDS011;39333;47.044;15.080;2022-09-21T07:03:22;163.85;;;156.98;;
53439;SDS011;39333;47.044;15.080;2022-09-21T07:05:49;161.88;;;155.13;;
53439;SDS011;39333;47.044;15.080;2022-09-21T07:08:16;170.52;;;163.10;;
53439;SDS011;39333;47.044;15.080;2022-09-21T07:11:03;166.63;;;159.18;;
53439;SDS011;39333;47.044;15.080;2022-09-21T07:13:30;174.50;;;166.50;;
53439;SDS011;39333;47.044;15.080;2022-09-21T07:15:57;178.90;;;171.05;;
53439;SDS011;39333;47.044;15.080;2022-09-21T07:18:23;168.98;;;161.88;;
53439;SDS011;39333;47.044;15.080;2022-09-21T07:20:50;178.30;;;170.00;;
53439;SDS011;39333;47.044;15.080;2022-09-21T07:23:17;177.13;;;168.85;;
53439;SDS011;39333;47.044;15.080;2022-09-21T07:25:46;175.13;;;167.23;;
53439;SDS011;39333;47.044;15.080;2022-09-21T07:28:18;189.90;;;181.55;;
53439;SDS011;39333;47.044;15.080;2022-09-21T07:30:44;179.25;;;171.07;;
53439;SDS011;39333;47.044;15.080;2022-09-21T07:33:11;181.85;;;173.93;;
53439;SDS011;39333;47.044;15.080;2022-09-21T07:35:38;182.90;;;174.93;;
53439;SDS011;39333;47.044;15.080;2022-09-21T07:38:05;173.60;;;166.07;;
53439;SDS011;39333;47.044;15.080;2022-09-21T07:40:33;174.38;;;166.57;;
53439;SDS011;39333;47.044;15.080;2022-09-21T07:43:01;168.93;;;161.95;;
53439;SDS011;39333;47.044;15.080;2022-09-21T07:45:28;174.18;;;167.00;;
53439;SDS011;39333;47.044;15.080;2022-09-21T07:48:03;175.93;;;168.23;;
53439;SDS011;39333;47.044;15.080;2022-09-21T07:50:31;180.82;;;172.98;;
53439;SDS011;39333;47.044;15.080;2022-09-21T07:53:02;172.30;;;164.88;;
53439;SDS011;39333;47.044;15.080;2022-09-21T07:55:28;179.93;;;171.80;;
53439;SDS011;39333;47.044;15.080;2022-09-21T07:57:55;183.23;;;175.07;;
53439;SDS011;39333;47.044;15.080;2022-09-21T08:00:41;183.77;;;175.52;;
53439;SDS011;39333;47.044;15.080;2022-09-21T08:03:07;190.95;;;182.32;;
53439;SDS011;39333;47.044;15.080;2022-09-21T08:05:34;179.27;;;171.18;;
53439;SDS011;39333;47.044;15.080;2022-09-21T08:08:01;186.82;;;178.65;;
53439;SDS011;39333;47.044;15.080;2022-09-21T08:10:27;191.65;;;183.45;;
53439;SDS011;39333;47.044;15.080;2022-09-21T08:12:55;189.95;;;181.65;;
53439;SDS011;39333;47.044;15.080;2022-09-21T08:15:22;196.30;;;187.48;;
53439;SDS011;39333;47.044;15.080;2022-09-21T08:18:09;194.38;;;185.57;;
53439;SDS011;39333;47.044;15.080;2022-09-21T08:20:35;188.45;;;179.57;;
53439;SDS011;39333;47.044;15.080;2022-09-21T08:23:02;177.55;;;169.90;;
53439;SDS011;39333;47.044;15.080;2022-09-21T08:25:29;190.73;;;182.43;;
53439;SDS011;39333;47.044;15.080;2022-09-21T08:27:56;183.00;;;175.02;;
53439;SDS011;39333;47.044;15.080;2022-09-21T08:30:25;181.02;;;173.27;;
53439;SDS011;39333;47.044;15.080;2022-09-21T08:32:53;177.32;;;169.40;;
53439;SDS011;39333;47.044;15.080;2022-09-21T08:35:20;179.95;;;172.27;;
53439;SDS011;39333;47.044;15.080;2022-09-21T08:37:47;185.23;;;177.45;;
53439;SDS011;39333;47.044;15.080;2022-09-21T08:40:16;178.05;;;170.48;;
53439;SDS011;39333;47.044;15.080;2022-09-21T08:42:55;175.05;;;167.25;;
53439;SDS011;39333;47.044;15.080;2022-09-21T08:45:29;170.57;;;162.98;;
53439;SDS011;39333;47.044;15.080;2022-09-21T08:48:01;174.40;;;166.80;;
53439;SDS011;39333;47.044;15.080;2022-09-21T08:50:38;176.82;;;169.35;;
53439;SDS011;39333;47.044;15.080;2022-09-21T08:53:12;174.48;;;166.98;;
53439;SDS011;39333;47.044;15.080;2022-09-21T08:55:41;175.52;;;167.95;;
53439;SDS011;39333;47.044;15.080;2022-09-21T09:00:56;171.35;;;164.20;;
53439;SDS011;39333;47.044;15.080;2022-09-21T09:09:39;167.57;;;160.55;;
53439;SDS011;39333;47.044;15.080;2022-09-21T09:22:53;175.50;;;168.20;;
53439;SDS011;39333;47.044;15.080;2022-09-21T09:25:44;175.48;;;167.88;;
53439;SDS011;39333;47.044;15.080;2022-09-21T09:31:19;166.98;;;159.93;;
53439;SDS011;39333;47.044;15.080;2022-09-21T09:36:45;177.85;;;170.35;;
53439;SDS011;39333;47.044;15.080;2022-09-21T09:39:24;179.95;;;172.50;;
53439;SDS011;39333;47.044;15.080;2022-09-21T09:50:17;177.05;;;169.57;;
53439;SDS011;39333;47.044;15.080;2022-09-21T09:52:50;175.05;;;167.82;;
53439;SDS011;39333;47.044;15.080;2022-09-21T09:55:23;174.70;;;167.35;;
53439;SDS011;39333;47.044;15.080;2022-09-21T09:57:55;173.55;;;166.48;;
53439;SDS011;39333;47.044;15.080;2022-09-21T10:00:23;172.13;;;164.93;;
53439;SDS011;39333;47.044;15.080;2022-09-21T10:02:54;181.07;;;173.20;;
53439;SDS011;39333;47.044;15.080;2022-09-21T10:05:24;184.30;;;176.52;;
53439;SDS011;39333;47.044;15.080;2022-09-21T10:07:58;183.02;;;175.35;;
53439;SDS011;39333;47.044;15.080;2022-09-21T10:24:01;167.55;;;160.35;;
53439;SDS011;39333;47.044;15.080;2022-09-21T10:26:35;174.40;;;167.13;;
53439;SDS011;39333;47.044;15.080;2022-09-21T10:29:16;175.57;;;167.88;;
53439;SDS011;39333;47.044;15.080;2022-09-21T10:31:55;173.98;;;166.80;;
53439;SDS011;39333;47.044;15.080;2022-09-21T10:34:30;169.57;;;162.57;;
53439;SDS011;39333;47.044;15.080;2022-09-21T10:36:59;175.23;;;167.73;;
53439;SDS011;39333;47.044;15.080;2022-09-21T10:39:29;172.93;;;165.10;;
53439;SDS011;39333;47.044;15.080;2022-09-21T10:41:58;168.88;;;161.95;;
53439;SDS011;39333;47.044;15.080;2022-09-21T10:44:35;163.43;;;156.63;;
53439;SDS011;39333;47.044;15.080;2022-09-21T10:49:52;171.95;;;164.98;;
53439;SDS011;39333;47.044;15.080;2022-09-21T10:52:21;176.38;;;169.13;;
53439;SDS011;39333;47.044;15.080;2022-09-21T10:54:52;172.43;;;165.60;;
53439;SDS011;39333;47.044;15.080;2022-09-21T10:57:21;163.07;;;156.68;;
53439;SDS011;39333;47.044;15.080;2022-09-21T10:59:50;174.73;;;167.55;;
53439;SDS011;39333;47.044;15.080;2022-09-21T11:18:42;175.65;;;168.25;;
53439;SDS011;39333;47.044;15.080;2022-09-21T11:21:34;170.98;;;163.93;;
53439;SDS011;39333;47.044;15.080;2022-09-21T11:26:47;170.40;;;163.70;;
53439;SDS011;39333;47.044;15.080;2022-09-21T11:29:24;174.82;;;168.05;;
53439;SDS011;39333;47.044;15.080;2022-09-21T11:35:38;166.18;;;159.70;;
53439;SDS011;39333;47.044;15.080;2022-09-21T11:40:49;167.17;;;160.57;;
53439;SDS011;39333;47.044;15.080;2022-09-21T11:57:26;166.07;;;159.60;;
53439;SDS011;39333;47.044;15.080;2022-09-21T12:00:16;168.75;;;162.15;;
53439;SDS011;39333;47.044;15.080;2022-09-21T12:05:35;163.77;;;157.23;;
53439;SDS011;39333;47.044;15.080;2022-09-21T12:08:15;170.85;;;164.15;;
53439;SDS011;39333;47.044;15.080;2022-09-21T12:13:48;173.68;;;166.63;;
53439;SDS011;39333;47.044;15.080;2022-09-21T12:16:20;167.45;;;160.95;;
53439;SDS011;39333;47.044;15.080;2022-09-21T12:19:54;170.93;;;163.45;;
53439;SDS011;39333;47.044;15.080;2022-09-21T12:22:08;166.15;;;159.73;;
53439;SDS011;39333;47.044;15.080;2022-09-21T12:24:42;165.90;;;159.07;;
53439;SDS011;39333;47.044;15.080;2022-09-21T12:27:18;166.65;;;159.80;;
53439;SDS011;39333;47.044;15.080;2022-09-21T12:30:11;166.85;;;160.23;;
53439;SDS011;39333;47.044;15.080;2022-09-21T12:37:58;164.35;;;157.68;;
53439;SDS011;39333;47.044;15.080;2022-09-21T12:40:36;162.90;;;156.35;;
53439;SDS011;39333;47.044;15.080;2022-09-21T12:46:14;175.52;;;168.13;;
53439;SDS011;39333;47.044;15.080;2022-09-21T12:48:48;163.60;;;156.90;;
53439;SDS011;39333;47.044;15.080;2022-09-21T12:51:16;167.07;;;160.60;;
53439;SDS011;39333;47.044;15.080;2022-09-21T12:53:48;166.40;;;159.40;;
53439;SDS011;39333;47.044;15.080;2022-09-21T12:58:52;176.20;;;169.10;;
53439;SDS011;39333;47.044;15.080;2022-09-21T13:01:44;170.00;;;163.20;;
53439;SDS011;39333;47.044;15.080;2022-09-21T13:04:34;170.90;;;164.02;;
53439;SDS011;39333;47.044;15.080;2022-09-21T13:07:27;171.15;;;164.48;;
53439;SDS011;39333;47.044;15.080;2022-09-21T13:10:15;169.10;;;162.35;;
53439;SDS011;39333;47.044;15.080;2022-09-21T13:12:50;164.45;;;157.55;;
53439;SDS011;39333;47.044;15.080;2022-09-21T13:15:25;159.77;;;153.50;;
53439;SDS011;39333;47.044;15.080;2022-09-21T13:20:25;164.07;;;157.27;;
53439;SDS011;39333;47.044;15.080;2022-09-21T13:22:57;167.25;;;160.63;;
53439;SDS011;39333;47.044;15.080;2022-09-21T13:25:29;168.87;;;161.80;;
53439;SDS011;39333;47.044;15.080;2022-09-21T13:33:28;164.10;;;157.48;;
53439;SDS011;39333;47.044;15.080;2022-09-21T13:54:26;168.05;;;161.40;;
53439;SDS011;39333;47.044;15.080;2022-09-21T13:59:40;175.15;;;167.82;;
53439;SDS011;39333;47.044;15.080;2022-09-21T14:02:27;169.98;;;162.70;;
53439;SDS011;39333;47.044;15.080;2022-09-21T14:05:23;176.70;;;168.95;;
53439;SDS011;39333;47.044;15.080;2022-09-21T14:08:00;170.00;;;163.20;;
53439;SDS011;39333;47.044;15.080;2022-09-21T14:10:31;167.50;;;160.85;;
53439;SDS011;39333;47.044;15.080;2022-09-21T14:13:02;163.38;;;156.68;;
53439;SDS011;39333;47.044;15.080;2022-09-21T14:15:34;170.85;;;164.02;;
53439;SDS011;39333;47.044;15.080;2022-09-21T14:18:07;165.88;;;159.07;;
53439;SDS011;39333;47.044;15.080;2022-09-21T14:20:37;170.05;;;163.25;;
53439;SDS011;39333;47.044;15.080;2022-09-21T14:28:14;177.27;;;169.88;;
53439;SDS011;39333;47.044;15.080;2022-09-21T14:30:47;172.77;;;165.73;;
53439;SDS011;39333;47.044;15.080;2022-09-21T14:33:26;170.02;;;163.15;;
53439;SDS011;39333;47.044;15.080;2022-09-21T14:36:15;173.65;;;166.77;;
53439;SDS011;39333;47.044;15.080;2022-09-21T14:38:47;166.13;;;159.25;;
53439;SDS011;39333;47.044;15.080;2022-09-21T14:41:21;166.82;;;159.82;;
53439;SDS011;39333;47.044;15.080;2022-09-21T14:43:58;169.13;;;161.90;;
53439;SDS011;39333;47.044;15.080;2022-09-21T14:46:43;165.25;;;158.48;;
53439;SDS011;39333;47.044;15.080;2022-09-21T14:52:32;174.70;;;167.48;;
53439;SDS011;39333;47.044;15.080;2022-09-21T15:00:48;159.25;;;152.75;;
53439;SDS011;39333;47.044;15.080;2022-09-21T15:03:23;170.90;;;164.18;;
53439;SDS011;39333;47.044;15.080;2022-09-21T15:05:54;165.88;;;159.00;;
53439;SDS011;39333;47.044;15.080;2022-09-21T15:11:23;177.00;;;169.90;;
53439;SDS011;39333;47.044;15.080;2022-09-21T15:16:25;168.43;;;161.40;;
53439;SDS011;39333;47.044;15.080;2022-09-21T15:21:52;180.27;;;171.82;;
53439;SDS011;39333;47.044;15.080;2022-09-21T15:26:54;166.05;;;159.05;;
53439;SDS011;39333;47.044;15.080;2022-09-21T15:29:29;165.23;;;157.85;;
53439;SDS011;39333;47.044;15.080;2022-09-21T15:31:58;166.52;;;159.65;;
53439;SDS011;39333;47.044;15.080;2022-09-21T15:34:26;166.40;;;159.20;;
53439;SDS011;39333;47.044;15.080;2022-09-21T15:37:03;165.75;;;158.73;;
53439;SDS011;39333;47.044;15.080;2022-09-21T15:39:31;174.38;;;166.70;;
53439;SDS011;39333;47.044;15.080;2022-09-21T15:42:11;164.50;;;157.85;;
53439;SDS011;39333;47.044;15.080;2022-09-21T15:44:44;167.48;;;160.27;;
53439;SDS011;39333;47.044;15.080;2022-09-21T15:47:18;165.93;;;158.93;;
53439;SDS011;39333;47.044;15.080;2022-09-21T15:49:47;172.73;;;165.32;;
53439;SDS011;39333;47.044;15.080;2022-09-21T15:52:28;179.77;;;171.57;;
53439;SDS011;39333;47.044;15.080;2022-09-21T15:55:10;163.65;;;156.88;;
53439;SDS011;39333;47.044;15.080;2022-09-21T15:57:41;171.38;;;164.20;;
53439;SDS011;39333;47.044;15.080;2022-09-21T16:02:42;169.63;;;162.68;;
53439;SDS011;39333;47.044;15.080;2022-09-21T16:05:19;169.90;;;162.57;;
53439;SDS011;39333;47.044;15.080;2022-09-21T16:07:47;171.43;;;164.13;;
53439;SDS011;39333;47.044;15.080;2022-09-21T16:13:02;171.60;;;164.85;;
53439;SDS011;39333;47.044;15.080;2022-09-21T16:16:04;169.13;;;162.13;;
53439;SDS011;39333;47.044;15.080;2022-09-21T16:21:20;170.75;;;163.70;;
53439;SDS011;39333;47.044;15.080;2022-09-21T16:23:52;170.05;;;163.07;;
53439;SDS011;39333;47.044;15.080;2022-09-21T16:26:29;168.82;;;161.13;;
53439;SDS011;39333;47.044;15.080;2022-09-21T16:31:48;168.00;;;161.05;;
53439;SDS011;39333;47.044;15.080;2022-09-21T16:34:29;166.48;;;159.55;;
53439;SDS011;39333;47.044;15.080;2022-09-21T16:37:00;170.07;;;163.38;;
53439;SDS011;39333;47.044;15.080;2022-09-21T16:39:27;171.68;;;164.25;;
53439;SDS011;39333;47.044;15.080;2022-09-21T16:42:00;160.52;;;154.23;;
53439;SDS011;39333;47.044;15.080;2022-09-21T16:44:29;173.75;;;166.45;;
53439;SDS011;39333;47.044;15.080;2022-09-21T16:47:01;171.10;;;163.90;;
53439;SDS011;39333;47.044;15.080;2022-09-21T16:49:30;179.38;;;171.23;;
53439;SDS011;39333;47.044;15.080;2022-09-21T16:52:01;177.00;;;169.48;;
53439;SDS011;39333;47.044;15.080;2022-09-21T16:54:28;184.63;;;176.43;;
53439;SDS011;39333;47.044;15.080;2022-09-21T16:56:56;177.02;;;169.55;;
53439;SDS011;39333;47.044;15.080;2022-09-21T16:59:24;179.15;;;171.20;;
53439;SDS011;39333;47.044;15.080;2022-09-21T17:01:53;187.68;;;179.30;;
53439;SDS011;39333;47.044;15.080;2022-09-21T17:04:26;182.30;;;173.57;;
53439;SDS011;39333;47.044;15.080;2022-09-21T17:06:55;172.88;;;165.43;;
53439;SDS011;39333;47.044;15.080;2022-09-21T17:09:23;181.38;;;173.10;;
53439;SDS011;39333;47.044;15.080;2022-09-21T17:11:55;169.82;;;162.63;;
53439;SDS011;39333;47.044;15.080;2022-09-21T17:14:30;176.68;;;168.82;;
53439;SDS011;39333;47.044;15.080;2022-09-21T17:17:02;182.57;;;174.68;;
53439;SDS011;39333;47.044;15.080;2022-09-21T17:19:31;178.80;;;171.00;;
53439;SDS011;39333;47.044;15.080;2022-09-21T17:21:58;170.48;;;163.20;;
53439;SDS011;39333;47.044;15.080;2022-09-21T17:24:25;183.82;;;175.63;;
53439;SDS011;39333;47.044;15.080;2022-09-21T17:27:12;182.13;;;174.35;;
53439;SDS011;39333;47.044;15.080;2022-09-21T17:29:43;181.77;;;174.27;;
53439;SDS011;39333;47.044;15.080;2022-09-21T17:32:15;188.13;;;180.30;;
53439;SDS011;39333;47.044;15.080;2022-09-21T17:34:50;176.88;;;169.45;;
53439;SDS011;39333;47.044;15.080;2022-09-21T17:37:22;183.23;;;175.10;;
53439;SDS011;39333;47.044;15.080;2022-09-21T17:39:50;176.02;;;168.43;;